Tropical Cyclones
[Index]
Main Index Home Page Stock Weather Photos Extreme Storms Discussion Storm News and Storm Chasing Reports Tropical Cyclones / Hurricanes / Typhoons Weather Data and Links Wild Fires / Bushfires Weather Observation Techniques Weather Picture Catalogue Tornado Pictures and Reports Stock Video Footage and DVDs for sale
Season 2002-2003 Tropical Cyclone ESETA Track Map
Season 2002-2003 Summaries: [BoM-AU] [JTWC-AU] [JTWC-SIO] [JTWC-SPAC] [JTWC-SH]
<<- Previous TC | JTWC 2002-2003 Season | Next TC ->>

click for intensity scale information  Lat/long Grid: Show Hide

 Date Labels: Show Hide

Joint Typhoon Warning Centre Cyclone Data

Name: ESETA

08 Mar 2003 18:00 UTC to 14 Mar 2003 12:00 UTC

    date/time    lat    long     hPa   cat  kts
2003-03-08 18   14.0   171.6    1006         15          
2003-03-09 00   13.9   171.9    1006         15          
2003-03-09 06   14.1   172.1    1002         25          
2003-03-09 12   14.3   172.3    1002         25          
2003-03-09 18   14.6   172.5    1002         25          
2003-03-10 00   15.1   172.6    1002         25          
2003-03-10 06   15.6   172.5    1002         25          
2003-03-10 12   16.2   172.4     997         35          
2003-03-10 18   17.1   172.1     994    1    40          
2003-03-11 00   18.0   172.2     991    1    45          
2003-03-11 06   18.9   172.5     984    2    55          
2003-03-11 12   19.6   173.2     984    2    55          
2003-03-11 18   20.4   174.1     980    2    60          
2003-03-12 00   21.4   175.0     976    2    65          
2003-03-12 06   21.6   176.5     976    2    65          
2003-03-12 12   21.8   178.1     984    2    70          
2003-03-12 18   21.9   179.9     954    3    90          
2003-03-13 00   21.9   177.8W    962    4   100          
2003-03-13 06   22.3   175.2W    962    4   100          
2003-03-13 12   22.9   172.5W    952    4   110          
2003-03-13 18   23.3   169.5W    976    3    80          
2003-03-14 00   25.3   165.6W    987    2    65          
2003-03-14 06   27.5   161.1W    994    2    55          
2003-03-14 12   30.5   156.9W   1000    1    45          
Winds are 1-min average.

Tropical cyclone tracks developed by Michael Bath using data from the Joint Typhoon Warning Centre Best Tracks and Google Maps.


[Australian Severe Weather index] [Copyright Notice] [Email Contacts] [Search This Site] [Privacy Policy]
Document: tropical_cyclone_eseta.htm Updated: 28 June 2017